Time;durP1;ratioP1;P1;durP2;ratioP2;P2;SDS_P1;SDS_P2;PMS_P1;PMS_P2;Temp;Humidity;BMP_temperature;BMP_pressure;BME280_temperature;BME280_humidity;BME280_pressure;Samples;Min_cycle;Max_cycle;Signal;HPM_P1;HPM_P2
2022/01/30 00:00:07;;;;;;;;;;;;;;;4.65;100.00;96517.38;1034501;28;19928;-70
2022/01/30 00:00:38;;;;;;;;;;;;;;;4.67;100.00;96520.56;1031172;28;20013;-70
2022/01/30 00:01:08;;;;;;;;;;;;;;;4.67;100.00;96525.75;1031384;28;20407;-71
2022/01/30 00:01:38;;;;;;;;;;;;;;;4.65;100.00;96514.75;1023375;29;19922;-70
2022/01/30 00:02:09;;;;;;;;;;;;;;;4.65;100.00;96522.56;1019311;29;19923;-70
2022/01/30 00:02:39;;;;;;;;;;;;;;;4.64;100.00;96513.97;1018833;29;19922;-69
2022/01/30 00:03:09;;;;;;;;;;;;;;;4.66;100.00;96513.75;1023356;28;19997;-71
2022/01/30 00:03:40;;;;;;;;;;;;;;;4.65;100.00;96522.56;1031428;28;19956;-71
2022/01/30 00:04:10;;;;;;;;;;;;;;;4.66;100.00;96511.16;1035489;28;19973;-70
2022/01/30 00:04:40;;;;;;;;;;;;;;;4.67;100.00;96516.16;1031284;28;19958;-70
2022/01/30 00:05:10;;;;;;;;;;;;;;;4.64;100.00;96511.38;1031166;28;19921;-70
2022/01/30 00:05:41;;;;;;;;;;;;;;;4.68;100.00;96499.56;1027425;28;19969;-71
2022/01/30 00:06:11;;;;;;;;;;;;;;;4.68;100.00;96507.34;1027402;28;19982;-71
2022/01/30 00:06:42;;;;;;;;;;;;;;;4.67;100.00;96510.97;1026958;28;19972;-70
2022/01/30 00:07:12;;;;;;;;;;;;;;;4.68;100.00;96506.56;1023465;28;19919;-71
2022/01/30 00:07:42;;;;;;;;;;;;;;;4.66;100.00;96500.75;1027438;28;19918;-71
2022/01/30 00:08:13;;;;;;;;;;;;;;;4.65;100.00;96512.16;1027389;28;19918;-70
2022/01/30 00:08:44;;;;;;;;;;;;;;;4.65;100.00;96501.75;1030978;28;19969;-69
2022/01/30 00:09:18;;;;;;;;;;;;;;;4.65;100.00;96504.38;1031726;28;19921;-70
2022/01/30 00:09:50;;;;;;;;;;;;;;;4.64;100.00;96500.97;1035527;28;20016;-71
2022/01/30 00:10:20;;;;;;;;;;;;;;;4.63;100.00;96499.38;1038990;28;19921;-70
2022/01/30 00:10:57;;;;;;;;;;;;;;;4.62;100.00;96478.78;1035249;28;19925;-71
2022/01/30 00:11:32;;;;;;;;;;;;;;;4.66;100.00;96508.56;1031427;28;19945;-70
2022/01/30 00:12:04;;;;;;;;;;;;;;;4.70;100.00;96488.97;1031203;28;20375;-69
2022/01/30 00:12:48;;;;;;;;;;;;;;;4.71;100.00;96500.94;1032057;28;19981;-70
2022/01/30 00:13:20;;;;;;;;;;;;;;;4.75;100.00;96501.34;1035411;28;19917;-70
2022/01/30 00:13:50;;;;;;;;;;;;;;;4.75;100.00;96499.53;1038409;28;20351;-71
2022/01/30 00:14:22;;;;;;;;;;;;;;;4.74;100.00;96497.94;1039636;28;19921;-70
2022/01/30 00:14:55;;;;;;;;;;;;;;;4.73;100.00;96493.75;1035360;28;20013;-70
2022/01/30 00:15:45;;;;;;;;;;;;;;;4.71;100.00;96498.34;1031329;28;20105;-70
2022/01/30 00:16:18;;;;;;;;;;;;;;;4.75;100.00;96496.94;1031465;28;19976;-70
2022/01/30 00:16:57;;;;;;;;;;;;;;;4.76;100.00;96495.91;1030744;28;20008;-72
2022/01/30 00:17:35;;;;;;;;;;;;;;;4.75;100.00;96489.13;1031309;28;19913;-71
2022/01/30 00:19:22;;;;;;;;;;;;;;;4.73;100.00;96481.56;1037289;28;19921;-71
2022/01/30 00:20:05;;;;;;;;;;;;;;;4.74;100.00;96492.75;1035519;28;19924;-72
2022/01/30 00:20:38;;;;;;;;;;;;;;;4.73;100.00;96496.34;1035273;28;20126;-70
2022/01/30 00:21:45;;;;;;;;;;;;;;;4.74;100.00;96492.75;1035354;28;20383;-71
2022/01/30 00:22:38;;;;;;;;;;;;;;;4.75;100.00;96496.94;1039220;28;19914;-70
2022/01/30 00:23:14;;;;;;;;;;;;;;;4.79;100.00;96507.72;1030798;28;19960;-71
2022/01/30 00:23:55;;;;;;;;;;;;;;;4.77;100.00;96502.72;1031217;28;20012;-70
2022/01/30 00:24:41;;;;;;;;;;;;;;;4.75;100.00;96504.72;1031265;28;19910;-70
2022/01/30 00:25:16;;;;;;;;;;;;;;;4.75;100.00;96503.94;1035483;28;19959;-72
2022/01/30 00:25:50;;;;;;;;;;;;;;;4.78;100.00;96501.72;1031420;28;19916;-71
2022/01/30 00:26:27;;;;;;;;;;;;;;;4.81;100.00;96500.50;1031342;28;19910;-71
2022/01/30 00:26:58;;;;;;;;;;;;;;;4.80;100.00;96498.94;1035877;28;19993;-69
2022/01/30 00:27:32;;;;;;;;;;;;;;;4.78;100.00;96501.72;1037282;28;20319;-71
2022/01/30 00:28:06;;;;;;;;;;;;;;;4.81;100.00;96498.69;1039464;28;19920;-72
2022/01/30 00:28:37;;;;;;;;;;;;;;;4.80;100.00;96486.72;1033421;28;19928;-72
2022/01/30 00:29:08;;;;;;;;;;;;;;;4.78;100.00;96491.31;1024599;28;19970;-70
2022/01/30 00:29:38;;;;;;;;;;;;;;;4.59;100.00;96461.00;1023159;29;19981;-70
2022/01/30 00:30:10;;;;;;;;;;;;;;;4.79;100.00;96492.09;1023318;29;19915;-71
2022/01/30 00:30:41;;;;;;;;;;;;;;;4.76;100.00;96503.72;1022703;28;19911;-70
2022/01/30 00:31:13;;;;;;;;;;;;;;;4.78;100.00;96503.53;1027667;28;19922;-70
2022/01/30 00:31:43;;;;;;;;;;;;;;;4.82;100.00;96504.69;1027203;28;19914;-71
2022/01/30 00:32:14;;;;;;;;;;;;;;;4.81;100.00;96498.69;1025610;28;19921;-70
2022/01/30 00:32:44;;;;;;;;;;;;;;;4.79;100.00;96490.31;1026654;28;20238;-70
2022/01/30 00:33:15;;;;;;;;;;;;;;;4.85;100.00;96492.09;1023383;28;19941;-70
2022/01/30 00:33:45;;;;;;;;;;;;;;;4.81;100.00;96498.69;1023139;28;20292;-71
2022/01/30 00:34:15;;;;;;;;;;;;;;;4.83;100.00;96506.28;1026685;28;20380;-70
2022/01/30 00:34:46;;;;;;;;;;;;;;;4.83;100.00;96494.09;1027380;28;20450;-70
2022/01/30 00:35:16;;;;;;;;;;;;;;;4.83;100.00;96499.31;1023569;28;19911;-70
2022/01/30 00:35:46;;;;;;;;;;;;;;;4.82;100.00;96500.28;1031199;28;20075;-70
2022/01/30 00:36:17;;;;;;;;;;;;;;;4.88;100.00;96489.06;1033584;28;20312;-70
2022/01/30 00:36:47;;;;;;;;;;;;;;;4.88;100.00;96491.66;1035378;28;20441;-72
2022/01/30 00:37:17;;;;;;;;;;;;;;;4.87;100.00;96495.28;1035328;28;19914;-71
2022/01/30 00:37:49;;;;;;;;;;;;;;;4.87;100.00;96484.88;1031124;28;20331;-70
2022/01/30 00:38:21;;;;;;;;;;;;;;;4.89;100.00;96488.06;1027489;28;19910;-70
2022/01/30 00:38:52;;;;;;;;;;;;;;;4.89;100.00;96467.25;1023723;28;20009;-71
2022/01/30 00:39:22;;;;;;;;;;;;;;;4.89;100.00;96451.66;1027629;28;19914;-70
2022/01/30 00:39:52;;;;;;;;;;;;;;;4.92;100.00;96473.84;1031335;28;19948;-71
2022/01/30 00:40:22;;;;;;;;;;;;;;;4.93;100.00;96478.06;1027510;28;20367;-71
2022/01/30 00:40:53;;;;;;;;;;;;;;;4.91;100.00;96469.66;1035444;28;19917;-70
2022/01/30 00:41:23;;;;;;;;;;;;;;;4.91;100.00;96464.47;1035005;28;19917;-69
2022/01/30 00:41:53;;;;;;;;;;;;;;;4.90;100.00;96463.66;1031061;28;20012;-70
2022/01/30 00:42:24;;;;;;;;;;;;;;;4.88;100.00;96455.25;1031188;28;19930;-70
2022/01/30 00:42:54;;;;;;;;;;;;;;;4.93;100.00;96460.66;1030552;28;20338;-71
2022/01/30 00:43:24;;;;;;;;;;;;;;;4.94;100.00;96464.84;1026120;28;19937;-69
2022/01/30 00:43:55;;;;;;;;;;;;;;;4.92;100.00;96466.84;1038510;28;19914;-69
2022/01/30 00:44:25;;;;;;;;;;;;;;;4.93;100.00;96458.06;1034174;28;19924;-70
2022/01/30 00:44:55;;;;;;;;;;;;;;;4.93;100.00;96478.84;1031306;28;19974;-70
2022/01/30 00:45:25;;;;;;;;;;;;;;;4.96;100.00;96470.63;1030293;28;20216;-71
2022/01/30 00:45:56;;;;;;;;;;;;;;;4.98;100.00;96475.63;1027360;28;19918;-70
2022/01/30 00:46:26;;;;;;;;;;;;;;;4.99;100.00;96471.22;1022822;28;19923;-70
2022/01/30 00:46:58;;;;;;;;;;;;;;;5.00;100.00;96468.41;1026401;28;19929;-70
2022/01/30 00:47:29;;;;;;;;;;;;;;;5.02;100.00;96460.38;1022602;28;19926;-70
2022/01/30 00:47:59;;;;;;;;;;;;;;;5.00;100.00;96468.41;1023681;28;19922;-71
2022/01/30 00:48:29;;;;;;;;;;;;;;;4.99;100.00;96466.81;1022418;28;20388;-69
2022/01/30 00:49:00;;;;;;;;;;;;;;;5.06;100.00;96471.97;1019148;28;19922;-71
2022/01/30 00:49:30;;;;;;;;;;;;;;;5.03;100.00;96472.38;1028089;28;19918;-69
2022/01/30 00:50:00;;;;;;;;;;;;;;;5.01;100.00;96458.81;1023255;28;19915;-70
2022/01/30 00:50:31;;;;;;;;;;;;;;;5.02;100.00;96463.00;1030814;28;19917;-70
2022/01/30 00:51:01;;;;;;;;;;;;;;;5.00;100.00;96468.41;1035149;28;19918;-70
2022/01/30 00:51:31;;;;;;;;;;;;;;;5.02;100.00;96473.41;1030935;28;19921;-71
2022/01/30 00:52:01;;;;;;;;;;;;;;;4.63;100.00;96402.44;1031102;28;19923;-69
2022/01/30 00:52:32;;;;;;;;;;;;;;;5.04;100.00;96469.59;1034514;28;19965;-69
2022/01/30 00:53:02;;;;;;;;;;;;;;;5.06;100.00;96471.97;1031421;28;20362;-69
2022/01/30 00:53:33;;;;;;;;;;;;;;;5.10;100.00;96470.56;1030243;28;20407;-71
2022/01/30 00:54:03;;;;;;;;;;;;;;;5.06;100.00;96464.97;1031177;28;19972;-70
2022/01/30 00:54:34;;;;;;;;;;;;;;;5.07;100.00;96469.16;1022781;28;20135;-70
2022/01/30 00:55:04;;;;;;;;;;;;;;;5.08;100.00;96464.75;1023095;28;19966;-70
2022/01/30 00:55:35;;;;;;;;;;;;;;;5.07;100.00;96457.97;1023129;28;19922;-71
2022/01/30 00:56:07;;;;;;;;;;;;;;;5.07;100.00;96458.75;1027166;28;19925;-71
2022/01/30 00:56:37;;;;;;;;;;;;;;;5.09;100.00;96466.34;1028022;28;19994;-70
2022/01/30 00:57:07;;;;;;;;;;;;;;;5.12;100.00;96447.72;1033782;28;20478;-71
2022/01/30 00:57:37;;;;;;;;;;;;;;;5.13;100.00;96441.50;1026151;28;19921;-71
2022/01/30 00:58:08;;;;;;;;;;;;;;;5.11;100.00;96449.53;1017965;29;19915;-70
2022/01/30 00:58:38;;;;;;;;;;;;;;;5.10;100.00;96460.16;1022911;29;19926;-70
2022/01/30 00:59:08;;;;;;;;;;;;;;;5.07;100.00;96457.97;1022876;29;19961;-70
2022/01/30 00:59:39;;;;;;;;;;;;;;;5.05;100.00;96455.56;1035039;28;20311;-71
2022/01/30 01:00:09;;;;;;;;;;;;;;;4.85;100.00;96434.09;1034915;28;20246;-71
2022/01/30 01:00:40;;;;;;;;;;;;;;;5.05;100.00;96463.38;1039220;28;19909;-70
2022/01/30 01:01:10;;;;;;;;;;;;;;;5.05;100.00;96476.38;1031004;28;19980;-71
2022/01/30 01:01:40;;;;;;;;;;;;;;;5.07;100.00;96469.16;1039300;28;19925;-70
2022/01/30 01:02:11;;;;;;;;;;;;;;;5.06;100.00;96459.75;1027028;28;20404;-70
2022/01/30 01:02:41;;;;;;;;;;;;;;;5.05;100.00;96470.38;1026884;28;20281;-70
2022/01/30 01:03:12;;;;;;;;;;;;;;;5.08;100.00;96469.97;1025803;28;19929;-72
2022/01/30 01:03:42;;;;;;;;;;;;;;;5.07;100.00;96469.16;1019075;29;19911;-69
2022/01/30 01:04:12;;;;;;;;;;;;;;;5.03;100.00;96465.41;1019546;29;19911;-70
2022/01/30 01:04:43;;;;;;;;;;;;;;;5.05;100.00;96463.38;1019347;29;19911;-71
2022/01/30 01:05:14;;;;;;;;;;;;;;;5.10;100.00;96462.75;1022756;28;19907;-71
2022/01/30 01:05:44;;;;;;;;;;;;;;;5.10;100.00;96467.97;1027078;28;19918;-71
2022/01/30 01:06:14;;;;;;;;;;;;;;;5.08;100.00;96472.56;1023377;28;19921;-72
2022/01/30 01:06:49;;;;;;;;;;;;;;;5.06;100.00;96475.34;1022948;29;20274;-70
2022/01/30 01:07:21;;;;;;;;;;;;;;;5.02;100.00;96470.78;1026373;28;19914;-69
2022/01/30 01:07:54;;;;;;;;;;;;;;;5.02;100.00;96470.78;1029773;28;19920;-72
2022/01/30 01:08:46;;;;;;;;;;;;;;;5.01;100.00;96467.41;1034036;28;20332;-70
2022/01/30 01:09:21;;;;;;;;;;;;;;;4.98;100.00;96462.63;1039049;28;19914;-70
2022/01/30 01:10:06;;;;;;;;;;;;;;;4.96;100.00;96480.22;1034556;28;20411;-70
2022/01/30 01:10:51;;;;;;;;;;;;;;;4.95;100.00;96470.81;1030648;28;19918;-69
2022/01/30 01:23:42;;;;;;;;;;;;;;;4.90;100.00;96463.66;1036579;28;19988;-70
2022/01/30 01:24:13;;;;;;;;;;;;;;;4.88;100.00;96464.88;1039353;28;19925;-70
2022/01/30 01:24:43;;;;;;;;;;;;;;;4.88;100.00;96478.66;1039351;28;19929;-70
2022/01/30 01:25:13;;;;;;;;;;;;;;;4.91;100.00;96469.66;1039272;28;19913;-70
2022/01/30 01:25:43;;;;;;;;;;;;;;;4.88;100.00;96442.25;1034940;28;19921;-70
2022/01/30 01:26:14;;;;;;;;;;;;;;;4.87;100.00;96458.88;1035310;28;19917;-73
2022/01/30 01:26:44;;;;;;;;;;;;;;;4.88;100.00;96460.47;1035222;28;19929;-69
2022/01/30 01:27:14;;;;;;;;;;;;;;;4.91;100.00;96462.66;1035165;28;19963;-70
2022/01/30 01:27:45;;;;;;;;;;;;;;;4.71;100.00;96434.16;1031023;28;19918;-70
2022/01/30 01:28:15;;;;;;;;;;;;;;;4.92;100.00;96451.22;1027191;28;19914;-70
2022/01/30 01:28:45;;;;;;;;;;;;;;;4.90;100.00;96468.88;1026954;28;19915;-71
2022/01/30 01:29:16;;;;;;;;;;;;;;;4.86;100.00;96454.69;1019253;28;20013;-71
2022/01/30 01:29:46;;;;;;;;;;;;;;;4.87;100.00;96458.88;1023053;28;19921;-69
2022/01/30 01:30:16;;;;;;;;;;;;;;;4.86;100.00;96449.50;1027164;28;19918;-70
2022/01/30 01:30:47;;;;;;;;;;;;;;;4.87;100.00;96453.69;1026962;28;20235;-71
2022/01/30 01:31:17;;;;;;;;;;;;;;;4.84;100.00;96448.91;1035198;28;19980;-71
2022/01/30 01:31:47;;;;;;;;;;;;;;;4.85;100.00;96460.88;1031160;28;19973;-70
2022/01/30 01:32:17;;;;;;;;;;;;;;;4.84;100.00;96467.09;1033691;28;20300;-70
2022/01/30 01:32:48;;;;;;;;;;;;;;;4.81;100.00;96459.72;1030491;28;19928;-73
2022/01/30 01:33:19;;;;;;;;;;;;;;;4.80;100.00;96463.31;1031188;28;20371;-70
2022/01/30 01:35:00;;;;;;;;;;;;;;;4.84;100.00;96474.91;1039482;28;19947;-71
2022/01/30 01:35:30;;;;;;;;;;;;;;;4.85;100.00;96476.47;1039238;28;19925;-70
2022/01/30 01:36:00;;;;;;;;;;;;;;;4.88;100.00;96475.28;1030889;28;20416;-71
2022/01/30 01:36:31;;;;;;;;;;;;;;;4.86;100.00;96485.91;1031040;28;19961;-71
2022/01/30 01:37:01;;;;;;;;;;;;;;;4.85;100.00;96492.09;1027217;28;20215;-72
2022/01/30 01:37:32;;;;;;;;;;;;;;;4.86;100.00;96492.88;1023332;28;20297;-72
2022/01/30 01:38:04;;;;;;;;;;;;;;;4.88;100.00;96483.06;1026882;28;20319;-72
2022/01/30 01:38:34;;;;;;;;;;;;;;;4.86;100.00;96478.09;1027313;28;20220;-72
2022/01/30 01:39:04;;;;;;;;;;;;;;;4.87;100.00;96478.88;1027300;28;20443;-70
2022/01/30 01:39:35;;;;;;;;;;;;;;;4.86;100.00;96478.09;1027290;28;20384;-69
2022/01/30 01:40:05;;;;;;;;;;;;;;;4.85;100.00;96492.09;1027211;28;19926;-70
2022/01/30 01:40:35;;;;;;;;;;;;;;;4.86;100.00;96492.88;1026929;28;19970;-70
2022/01/30 01:41:06;;;;;;;;;;;;;;;4.84;100.00;96494.91;1026924;28;19910;-70
2022/01/30 01:41:36;;;;;;;;;;;;;;;4.82;100.00;96502.88;1031133;28;20539;-70
2022/01/30 01:42:07;;;;;;;;;;;;;;;4.83;100.00;96503.69;1026883;28;19913;-69
2022/01/30 01:42:37;;;;;;;;;;;;;;;4.88;100.00;96496.88;1022853;29;20001;-68
2022/01/30 01:43:08;;;;;;;;;;;;;;;4.84;100.00;96500.09;1022593;28;19911;-70
2022/01/30 01:43:38;;;;;;;;;;;;;;;4.81;100.00;96501.31;1023208;28;20333;-71
2022/01/30 01:44:15;;;;;;;;;;;;;;;4.83;100.00;96503.69;1027253;28;19907;-70
2022/01/30 01:44:49;;;;;;;;;;;;;;;4.78;100.00;96486.13;1026787;28;20079;-70
2022/01/30 01:45:22;;;;;;;;;;;;;;;4.80;100.00;96499.72;1028622;28;20009;-72
2022/01/30 01:45:56;;;;;;;;;;;;;;;4.84;100.00;96494.91;1033043;28;20371;-71
2022/01/30 01:46:31;;;;;;;;;;;;;;;4.84;100.00;96500.91;1036464;28;19910;-71
2022/01/30 01:47:02;;;;;;;;;;;;;;;4.82;100.00;96500.28;1035076;28;19917;-71
2022/01/30 01:47:33;;;;;;;;;;;;;;;4.80;100.00;96491.13;1031111;28;19981;-71
2022/01/30 01:48:10;;;;;;;;;;;;;;;4.80;100.00;96502.31;1030976;28;19914;-71
2022/01/30 01:48:42;;;;;;;;;;;;;;;4.86;100.00;96485.91;1027918;28;19914;-71
2022/01/30 01:49:19;;;;;;;;;;;;;;;4.83;100.00;96488.09;1028342;28;19914;-70
2022/01/30 01:49:51;;;;;;;;;;;;;;;4.84;100.00;96485.28;1031031;28;19921;-70
2022/01/30 01:50:38;;;;;;;;;;;;;;;4.83;100.00;96478.50;1030985;28;19918;-70
2022/01/30 01:51:17;;;;;;;;;;;;;;;4.81;100.00;96483.09;1031305;28;19990;-70
2022/01/30 01:52:01;;;;;;;;;;;;;;;4.80;100.00;96478.91;1039204;28;19909;-71
2022/01/30 01:52:31;;;;;;;;;;;;;;;4.78;100.00;96480.91;1034954;28;19910;-71
2022/01/30 01:53:01;;;;;;;;;;;;;;;4.78;100.00;96478.31;1034487;28;19972;-70
2022/01/30 01:53:32;;;;;;;;;;;;;;;4.76;100.00;96474.31;1035725;28;19912;-71
2022/01/30 01:54:02;;;;;;;;;;;;;;;4.73;100.00;96478.94;1035288;28;19917;-70
2022/01/30 01:54:33;;;;;;;;;;;;;;;4.72;100.00;96466.13;1038606;28;19953;-71
2022/01/30 01:55:04;;;;;;;;;;;;;;;4.75;100.00;96470.94;1031213;28;19909;-71
2022/01/30 01:55:35;;;;;;;;;;;;;;;4.76;100.00;96477.72;1035719;28;19906;-72
2022/01/30 01:56:05;;;;;;;;;;;;;;;4.77;100.00;96474.13;1039434;28;19948;-71
2022/01/30 01:56:35;;;;;;;;;;;;;;;4.76;100.00;96467.31;1039519;28;19976;-70
2022/01/30 01:57:06;;;;;;;;;;;;;;;4.75;100.00;96464.94;1030725;28;19906;-70
2022/01/30 01:57:36;;;;;;;;;;;;;;;4.76;100.00;96456.91;1019481;29;19907;-70
2022/01/30 01:58:06;;;;;;;;;;;;;;;4.76;100.00;96462.13;1019575;29;19918;-68
2022/01/30 01:58:37;;;;;;;;;;;;;;;4.74;100.00;96461.53;1019810;28;19918;-68
2022/01/30 01:59:07;;;;;;;;;;;;;;;4.74;100.00;96458.94;1027564;28;19911;-71
2022/01/30 01:59:37;;;;;;;;;;;;;;;4.72;100.00;96464.34;1031551;28;19906;-70
2022/01/30 02:00:08;;;;;;;;;;;;;;;4.72;100.00;96471.34;1026893;28;19910;-69
2022/01/30 02:00:38;;;;;;;;;;;;;;;4.69;100.00;96475.19;1031397;28;19910;-69
2022/01/30 02:01:09;;;;;;;;;;;;;;;4.69;100.00;96467.38;1035481;28;20327;-70
2022/01/30 02:01:39;;;;;;;;;;;;;;;4.72;100.00;96461.72;1035540;28;19917;-70
2022/01/30 02:02:09;;;;;;;;;;;;;;;4.74;100.00;96456.34;1039610;28;19917;-70
2022/01/30 02:02:40;;;;;;;;;;;;;;;4.72;100.00;96468.75;1031294;28;19920;-70
2022/01/30 02:03:10;;;;;;;;;;;;;;;4.71;100.00;96470.53;1030830;28;20132;-71
2022/01/30 02:03:41;;;;;;;;;;;;;;;4.68;100.00;96465.75;1035521;28;19924;-70
2022/01/30 02:04:11;;;;;;;;;;;;;;;4.69;100.00;96461.34;1035644;28;20411;-70
2022/01/30 02:04:42;;;;;;;;;;;;;;;4.67;100.00;96473.78;1027584;28;20001;-70
2022/01/30 02:05:12;;;;;;;;;;;;;;;4.67;100.00;96463.38;1023418;28;19911;-70
2022/01/30 02:05:47;;;;;;;;;;;;;;;4.70;100.00;96462.97;1023536;29;19920;-69
2022/01/30 02:06:20;;;;;;;;;;;;;;;4.71;100.00;96457.56;1020900;28;19918;-69
2022/01/30 02:08:10;;;;;;;;;;;;;;;4.70;100.00;96468.16;1024333;28;19962;-70
2022/01/30 02:09:09;;;;;;;;;;;;;;;4.66;100.00;96473.00;1037047;28;19917;-71
2022/01/30 02:09:40;;;;;;;;;;;;;;;4.65;100.00;96465.38;1035487;28;20338;-70
2022/01/30 02:10:17;;;;;;;;;;;;;;;4.62;100.00;96463.97;1035474;28;19932;-70
2022/01/30 02:11:37;;;;;;;;;;;;;;;4.64;100.00;96474.19;1042236;28;20370;-70
2022/01/30 02:12:16;;;;;;;;;;;;;;;4.41;100.00;96436.50;1035530;28;19925;-69
2022/01/30 02:12:51;;;;;;;;;;;;;;;4.64;100.00;96469.00;1023093;29;19915;-69
2022/01/30 02:14:46;;;;;;;;;;;;;;;4.58;100.00;96469.81;1037826;28;20382;-69
2022/01/30 02:25:39;;;;;;;;;;;;;;;4.57;100.00;96457.81;1031377;28;19921;-70
2022/01/30 02:26:10;;;;;;;;;;;;;;;4.56;100.00;96461.41;1029822;28;19936;-69
2022/01/30 02:26:42;;;;;;;;;;;;;;;4.53;100.00;96472.22;1030060;28;19929;-71
2022/01/30 02:27:14;;;;;;;;;;;;;;;4.53;100.00;96467.00;1031256;28;19922;-69
2022/01/30 02:27:45;;;;;;;;;;;;;;;4.57;100.00;96452.63;1028089;28;19986;-69
2022/01/30 02:28:18;;;;;;;;;;;;;;;4.58;100.00;96475.00;1031954;28;19918;-72
2022/01/30 02:28:53;;;;;;;;;;;;;;;4.58;100.00;96462.81;1031306;28;20103;-69
2022/01/30 02:29:23;;;;;;;;;;;;;;;4.61;100.00;96469.41;1032663;28;19957;-69
2022/01/30 02:29:53;;;;;;;;;;;;;;;4.58;100.00;96456.81;1034547;28;19921;-71
2022/01/30 02:30:28;;;;;;;;;;;;;;;4.58;100.00;96467.22;1032285;28;20415;-70
2022/01/30 02:31:03;;;;;;;;;;;;;;;4.56;100.00;96461.41;1032042;28;20434;-71
2022/01/30 02:31:39;;;;;;;;;;;;;;;4.55;100.00;96452.81;1027902;28;19914;-71
2022/01/30 02:32:09;;;;;;;;;;;;;;;4.58;100.00;96464.63;1028845;28;20375;-70
2022/01/30 02:32:39;;;;;;;;;;;;;;;4.60;100.00;96454.81;1033247;28;19921;-70
2022/01/30 02:33:10;;;;;;;;;;;;;;;4.60;100.00;96455.63;1031796;28;19924;-69
2022/01/30 02:33:41;;;;;;;;;;;;;;;4.59;100.00;96454.00;1035200;28;19929;-71
2022/01/30 02:34:11;;;;;;;;;;;;;;;4.56;100.00;96457.03;1033145;28;19926;-70
2022/01/30 02:34:41;;;;;;;;;;;;;;;4.58;100.00;96439.41;1030167;28;19922;-70
2022/01/30 02:35:12;;;;;;;;;;;;;;;4.60;100.00;96447.03;1027808;28;19962;-70
2022/01/30 02:35:42;;;;;;;;;;;;;;;4.61;100.00;96448.59;1027827;28;19925;-71
2022/01/30 02:36:12;;;;;;;;;;;;;;;4.63;100.00;96447.41;1031733;28;19926;-71
2022/01/30 02:36:45;;;;;;;;;;;;;;;4.62;100.00;96442.41;1031400;28;20013;-68
2022/01/30 02:37:17;;;;;;;;;;;;;;;4.63;100.00;96431.81;1031825;28;19969;-71
2022/01/30 02:37:51;;;;;;;;;;;;;;;4.64;100.00;96448.19;1031382;28;19925;-70
2022/01/30 02:38:24;;;;;;;;;;;;;;;4.63;100.00;96439.59;1033992;28;19921;-70
2022/01/30 02:38:58;;;;;;;;;;;;;;;4.60;100.00;96432.22;1031614;28;19965;-70
2022/01/30 02:39:28;;;;;;;;;;;;;;;4.59;100.00;96448.00;1027538;28;19968;-71
2022/01/30 02:39:59;;;;;;;;;;;;;;;4.61;100.00;96438.22;1027771;28;20441;-70
2022/01/30 02:40:33;;;;;;;;;;;;;;;4.63;100.00;96434.41;1028473;28;19918;-70
2022/01/30 02:41:03;;;;;;;;;;;;;;;4.64;100.00;96437.81;1036384;28;19929;-72
2022/01/30 02:41:33;;;;;;;;;;;;;;;4.61;100.00;96431.22;1039811;28;20354;-71
2022/01/30 02:42:04;;;;;;;;;;;;;;;4.59;100.00;96435.81;1035638;28;19918;-71
2022/01/30 02:42:37;;;;;;;;;;;;;;;4.58;100.00;96433.41;1035616;28;19921;-71
2022/01/30 02:43:08;;;;;;;;;;;;;;;4.61;100.00;96433.00;1034917;28;20004;-71
2022/01/30 02:43:48;;;;;;;;;;;;;;;4.61;100.00;96441.59;1036186;28;19956;-72
2022/01/30 02:44:23;;;;;;;;;;;;;;;4.57;100.00;96448.22;1035758;28;20557;-70
2022/01/30 02:44:57;;;;;;;;;;;;;;;4.58;100.00;96439.41;1035668;28;20362;-70
2022/01/30 02:45:32;;;;;;;;;;;;;;;4.58;100.00;96446.41;1035790;28;20375;-70
2022/01/30 02:46:35;;;;;;;;;;;;;;;4.60;100.00;96441.81;1039803;28;19952;-70
2022/01/30 02:47:06;;;;;;;;;;;;;;;4.60;100.00;96434.81;1038864;28;19920;-70
2022/01/30 02:47:53;;;;;;;;;;;;;;;4.58;100.00;96449.03;1032364;28;19906;-71
2022/01/30 02:48:31;;;;;;;;;;;;;;;4.56;100.00;96427.63;1035652;28;19917;-70
2022/01/30 02:49:13;;;;;;;;;;;;;;;4.59;100.00;96427.22;1027430;28;19918;-69
2022/01/30 02:50:09;;;;;;;;;;;;;;;4.56;100.00;96422.44;1027291;28;19925;-70
2022/01/30 02:50:50;;;;;;;;;;;;;;;4.57;100.00;96437.03;1025673;28;19922;-69
2022/01/30 02:51:22;;;;;;;;;;;;;;;4.54;100.00;96442.66;1032114;28;19928;-71
2022/01/30 02:51:57;;;;;;;;;;;;;;;4.52;100.00;96444.63;1035806;28;20318;-70
2022/01/30 02:52:29;;;;;;;;;;;;;;;4.54;100.00;96453.03;1031211;28;19914;-69
2022/01/30 02:53:01;;;;;;;;;;;;;;;4.60;100.00;96441.81;1032133;28;19922;-71
2022/01/30 02:53:38;;;;;;;;;;;;;;;4.59;100.00;96451.41;1035439;28;19914;-71
2022/01/30 02:54:10;;;;;;;;;;;;;;;4.58;100.00;96431.63;1026956;28;19918;-70
2022/01/30 02:54:41;;;;;;;;;;;;;;;4.61;100.00;96448.59;1027494;28;19914;-71
2022/01/30 02:55:12;;;;;;;;;;;;;;;4.61;100.00;96451.22;1031278;28;20352;-71
2022/01/30 02:55:42;;;;;;;;;;;;;;;4.63;100.00;96436.22;1036762;28;19967;-71
2022/01/30 02:56:12;;;;;;;;;;;;;;;4.64;100.00;96461.97;1036191;28;20346;-71
2022/01/30 02:56:43;;;;;;;;;;;;;;;4.69;100.00;96443.16;1039425;28;19980;-70
2022/01/30 02:57:13;;;;;;;;;;;;;;;4.67;100.00;96445.97;1027601;28;20300;-70
2022/01/30 02:57:43;;;;;;;;;;;;;;;4.67;100.00;96450.38;1027190;28;19972;-70
2022/01/30 02:58:15;;;;;;;;;;;;;;;4.63;100.00;96455.19;1023487;28;19994;-70
2022/01/30 02:58:45;;;;;;;;;;;;;;;4.66;100.00;96446.16;1027969;28;19989;-73
2022/01/30 02:59:17;;;;;;;;;;;;;;;4.66;100.00;96440.97;1039501;28;19952;-69
2022/01/30 02:59:47;;;;;;;;;;;;;;;4.68;100.00;96457.97;1029151;28;19963;-67
2022/01/30 03:00:17;;;;;;;;;;;;;;;4.58;100.00;96423.03;1033128;28;19980;-71
2022/01/30 03:00:48;;;;;;;;;;;;;;;4.77;100.00;96445.53;1029843;28;19918;-71
2022/01/30 03:01:18;;;;;;;;;;;;;;;4.79;100.00;96447.91;1026720;28;19985;-72
2022/01/30 03:01:48;;;;;;;;;;;;;;;4.78;100.00;96439.31;1029944;28;19920;-72
2022/01/30 03:02:19;;;;;;;;;;;;;;;4.74;100.00;96435.53;1026893;28;19921;-70
2022/01/30 03:02:49;;;;;;;;;;;;;;;4.73;100.00;96441.75;1029181;28;19940;-70
2022/01/30 03:03:19;;;;;;;;;;;;;;;4.73;100.00;96445.16;1032710;28;19921;-71
2022/01/30 03:03:50;;;;;;;;;;;;;;;4.70;100.00;96447.38;1034705;28;19921;-71
2022/01/30 03:04:20;;;;;;;;;;;;;;;4.72;100.00;96453.13;1038968;28;19917;-71
2022/01/30 03:04:50;;;;;;;;;;;;;;;4.70;100.00;96442.97;1038744;28;19917;-71
2022/01/30 03:05:21;;;;;;;;;;;;;;;4.67;100.00;96443.38;1035100;28;20733;-70
2022/01/30 03:05:51;;;;;;;;;;;;;;;4.68;100.00;96444.16;1034770;28;19921;-71
2022/01/30 03:06:21;;;;;;;;;;;;;;;4.69;100.00;96435.34;1030878;28;19929;-71
2022/01/30 03:06:51;;;;;;;;;;;;;;;4.71;100.00;96435.97;1030793;28;20323;-70
2022/01/30 03:07:22;;;;;;;;;;;;;;;4.72;100.00;96443.53;1039377;28;20037;-70
2022/01/30 03:07:52;;;;;;;;;;;;;;;4.72;100.00;96445.34;1034768;28;19917;-71
2022/01/30 03:08:22;;;;;;;;;;;;;;;4.72;100.00;96440.16;1034706;28;19913;-69
2022/01/30 03:08:53;;;;;;;;;;;;;;;4.70;100.00;96442.19;1035002;28;19922;-70
2022/01/30 03:09:23;;;;;;;;;;;;;;;4.67;100.00;96427.78;1026729;28;19925;-70
2022/01/30 03:09:53;;;;;;;;;;;;;;;4.67;100.00;96442.59;1026608;28;19922;-70
2022/01/30 03:10:24;;;;;;;;;;;;;;;4.69;100.00;96450.97;1022812;29;19954;-71
2022/01/30 03:10:54;;;;;;;;;;;;;;;4.67;100.00;96437.38;1019034;29;20426;-70
2022/01/30 03:11:24;;;;;;;;;;;;;;;4.65;100.00;96455.78;1018951;29;19970;-70
2022/01/30 03:11:54;;;;;;;;;;;;;;;4.61;100.00;96440.81;1023593;28;19982;-71
2022/01/30 03:12:25;;;;;;;;;;;;;;;4.60;100.00;96454.81;1019550;29;19923;-71
2022/01/30 03:12:55;;;;;;;;;;;;;;;4.58;100.00;96456.81;1018996;29;19927;-70
2022/01/30 03:13:25;;;;;;;;;;;;;;;4.55;100.00;96459.81;1027395;28;19922;-71
2022/01/30 03:13:56;;;;;;;;;;;;;;;4.54;100.00;96450.44;1027608;28;19925;-71
2022/01/30 03:14:26;;;;;;;;;;;;;;;4.49;100.00;96453.63;1027478;28;19920;-71
2022/01/30 03:14:56;;;;;;;;;;;;;;;4.46;100.00;96456.66;1027611;28;20472;-70
2022/01/30 03:15:26;;;;;;;;;;;;;;;4.46;100.00;96448.84;1023385;28;19925;-71
2022/01/30 03:16:00;;;;;;;;;;;;;;;4.45;100.00;96455.84;1023806;29;19925;-71
2022/01/30 03:16:30;;;;;;;;;;;;;;;4.40;100.00;96460.09;1028358;28;20435;-71
2022/01/30 03:17:01;;;;;;;;;;;;;;;4.39;100.00;96461.91;1032050;28;20009;-70